sensor_id;sensor_type;location;lat;lon;timestamp;P1;durP1;ratioP1;P2;durP2;ratioP2
40373;SDS011;26079;45.958;12.492;2022-12-29T00:01:37;30.25;;;19.75;;
40373;SDS011;26079;45.958;12.492;2022-12-29T00:04:03;23.20;;;17.95;;
40373;SDS011;26079;45.958;12.492;2022-12-29T00:06:30;23.77;;;18.50;;
40373;SDS011;26079;45.958;12.492;2022-12-29T00:08:56;26.23;;;18.67;;
40373;SDS011;26079;45.958;12.492;2022-12-29T00:11:23;25.73;;;18.08;;
40373;SDS011;26079;45.958;12.492;2022-12-29T00:13:51;29.15;;;19.48;;
40373;SDS011;26079;45.958;12.492;2022-12-29T00:16:35;25.60;;;20.17;;
40373;SDS011;26079;45.958;12.492;2022-12-29T00:19:03;27.33;;;19.80;;
40373;SDS011;26079;45.958;12.492;2022-12-29T00:21:29;27.70;;;20.40;;
40373;SDS011;26079;45.958;12.492;2022-12-29T00:24:18;28.33;;;20.25;;
40373;SDS011;26079;45.958;12.492;2022-12-29T00:29:47;24.83;;;19.67;;
40373;SDS011;26079;45.958;12.492;2022-12-29T00:32:32;28.40;;;19.30;;
40373;SDS011;26079;45.958;12.492;2022-12-29T00:35:38;26.55;;;19.52;;
40373;SDS011;26079;45.958;12.492;2022-12-29T00:38:08;21.52;;;17.40;;
40373;SDS011;26079;45.958;12.492;2022-12-29T00:40:54;27.98;;;19.10;;
40373;SDS011;26079;45.958;12.492;2022-12-29T00:43:37;25.08;;;19.85;;
40373;SDS011;26079;45.958;12.492;2022-12-29T00:46:22;26.15;;;21.02;;
40373;SDS011;26079;45.958;12.492;2022-12-29T00:48:47;26.67;;;19.48;;
40373;SDS011;26079;45.958;12.492;2022-12-29T00:51:31;29.55;;;19.42;;
40373;SDS011;26079;45.958;12.492;2022-12-29T00:53:57;31.58;;;20.02;;
40373;SDS011;26079;45.958;12.492;2022-12-29T00:56:23;26.33;;;18.40;;
40373;SDS011;26079;45.958;12.492;2022-12-29T00:58:48;25.48;;;17.33;;
40373;SDS011;26079;45.958;12.492;2022-12-29T01:01:14;21.17;;;17.95;;
40373;SDS011;26079;45.958;12.492;2022-12-29T01:03:39;28.73;;;20.48;;
40373;SDS011;26079;45.958;12.492;2022-12-29T01:06:07;26.40;;;18.38;;
40373;SDS011;26079;45.958;12.492;2022-12-29T01:08:35;23.83;;;19.08;;
40373;SDS011;26079;45.958;12.492;2022-12-29T01:13:32;23.58;;;19.00;;
40373;SDS011;26079;45.958;12.492;2022-12-29T01:15:58;23.70;;;17.77;;
40373;SDS011;26079;45.958;12.492;2022-12-29T01:18:24;25.83;;;19.58;;
40373;SDS011;26079;45.958;12.492;2022-12-29T01:20:50;23.50;;;17.27;;
40373;SDS011;26079;45.958;12.492;2022-12-29T01:23:16;23.30;;;16.30;;
40373;SDS011;26079;45.958;12.492;2022-12-29T01:25:42;22.05;;;17.30;;
40373;SDS011;26079;45.958;12.492;2022-12-29T01:28:07;25.70;;;20.42;;
40373;SDS011;26079;45.958;12.492;2022-12-29T01:30:34;21.55;;;17.75;;
40373;SDS011;26079;45.958;12.492;2022-12-29T01:33:00;21.85;;;16.95;;
40373;SDS011;26079;45.958;12.492;2022-12-29T01:35:26;22.00;;;17.02;;
40373;SDS011;26079;45.958;12.492;2022-12-29T01:37:55;26.08;;;17.83;;
40373;SDS011;26079;45.958;12.492;2022-12-29T01:40:23;25.52;;;17.08;;
40373;SDS011;26079;45.958;12.492;2022-12-29T01:42:48;24.13;;;18.20;;
40373;SDS011;26079;45.958;12.492;2022-12-29T01:45:15;24.02;;;16.90;;
40373;SDS011;26079;45.958;12.492;2022-12-29T01:48:15;20.60;;;17.50;;
40373;SDS011;26079;45.958;12.492;2022-12-29T01:50:36;21.50;;;18.45;;
40373;SDS011;26079;45.958;12.492;2022-12-29T01:53:12;25.73;;;19.17;;
40373;SDS011;26079;45.958;12.492;2022-12-29T01:55:43;23.42;;;16.35;;
40373;SDS011;26079;45.958;12.492;2022-12-29T01:58:13;27.23;;;17.20;;
40373;SDS011;26079;45.958;12.492;2022-12-29T02:00:41;22.27;;;17.90;;
40373;SDS011;26079;45.958;12.492;2022-12-29T02:03:07;19.17;;;16.38;;
40373;SDS011;26079;45.958;12.492;2022-12-29T02:05:42;21.88;;;17.25;;
40373;SDS011;26079;45.958;12.492;2022-12-29T02:08:25;22.05;;;16.75;;
40373;SDS011;26079;45.958;12.492;2022-12-29T02:10:53;27.42;;;16.63;;
40373;SDS011;26079;45.958;12.492;2022-12-29T02:13:20;23.48;;;16.92;;
40373;SDS011;26079;45.958;12.492;2022-12-29T02:15:55;20.50;;;16.13;;
40373;SDS011;26079;45.958;12.492;2022-12-29T02:43:44;22.10;;;15.60;;
40373;SDS011;26079;45.958;12.492;2022-12-29T02:46:20;21.23;;;15.60;;
40373;SDS011;26079;45.958;12.492;2022-12-29T02:49:11;23.08;;;15.20;;
40373;SDS011;26079;45.958;12.492;2022-12-29T02:52:07;20.40;;;15.18;;
40373;SDS011;26079;45.958;12.492;2022-12-29T02:54:40;19.95;;;15.35;;
40373;SDS011;26079;45.958;12.492;2022-12-29T02:59:55;17.45;;;15.30;;
40373;SDS011;26079;45.958;12.492;2022-12-29T03:08:37;19.20;;;13.80;;
40373;SDS011;26079;45.958;12.492;2022-12-29T03:11:18;18.75;;;14.13;;
40373;SDS011;26079;45.958;12.492;2022-12-29T03:14:14;18.90;;;14.75;;
40373;SDS011;26079;45.958;12.492;2022-12-29T03:17:56;16.08;;;13.70;;
40373;SDS011;26079;45.958;12.492;2022-12-29T03:20:26;14.80;;;12.50;;
40373;SDS011;26079;45.958;12.492;2022-12-29T03:23:03;18.35;;;15.15;;
40373;SDS011;26079;45.958;12.492;2022-12-29T03:25:32;19.23;;;14.35;;
40373;SDS011;26079;45.958;12.492;2022-12-29T03:28:10;22.08;;;14.13;;
40373;SDS011;26079;45.958;12.492;2022-12-29T03:30:40;17.35;;;13.73;;
40373;SDS011;26079;45.958;12.492;2022-12-29T03:33:08;31.85;;;19.95;;
40373;SDS011;26079;45.958;12.492;2022-12-29T03:35:37;54.40;;;36.85;;
40373;SDS011;26079;45.958;12.492;2022-12-29T03:38:07;20.52;;;17.40;;
40373;SDS011;26079;45.958;12.492;2022-12-29T03:40:42;21.98;;;15.20;;
40373;SDS011;26079;45.958;12.492;2022-12-29T03:43:10;17.17;;;13.05;;
40373;SDS011;26079;45.958;12.492;2022-12-29T03:45:37;16.30;;;13.27;;
40373;SDS011;26079;45.958;12.492;2022-12-29T03:48:03;16.92;;;14.00;;
40373;SDS011;26079;45.958;12.492;2022-12-29T03:50:29;15.82;;;12.95;;
40373;SDS011;26079;45.958;12.492;2022-12-29T03:52:55;15.55;;;13.55;;
40373;SDS011;26079;45.958;12.492;2022-12-29T03:55:21;17.60;;;13.27;;
40373;SDS011;26079;45.958;12.492;2022-12-29T03:57:46;14.23;;;12.55;;
40373;SDS011;26079;45.958;12.492;2022-12-29T04:00:12;20.55;;;14.63;;
40373;SDS011;26079;45.958;12.492;2022-12-29T04:02:38;18.30;;;12.45;;
40373;SDS011;26079;45.958;12.492;2022-12-29T04:05:04;19.40;;;12.43;;
40373;SDS011;26079;45.958;12.492;2022-12-29T04:07:30;18.15;;;13.10;;
40373;SDS011;26079;45.958;12.492;2022-12-29T04:09:56;19.15;;;13.52;;
40373;SDS011;26079;45.958;12.492;2022-12-29T04:12:22;17.20;;;13.55;;
40373;SDS011;26079;45.958;12.492;2022-12-29T04:14:47;16.92;;;12.00;;
40373;SDS011;26079;45.958;12.492;2022-12-29T04:17:13;18.48;;;13.70;;
40373;SDS011;26079;45.958;12.492;2022-12-29T04:19:39;15.45;;;12.32;;
40373;SDS011;26079;45.958;12.492;2022-12-29T04:22:05;18.02;;;11.73;;
40373;SDS011;26079;45.958;12.492;2022-12-29T04:24:30;15.20;;;13.57;;
40373;SDS011;26079;45.958;12.492;2022-12-29T04:26:56;16.17;;;12.98;;
40373;SDS011;26079;45.958;12.492;2022-12-29T04:29:21;15.95;;;13.00;;
40373;SDS011;26079;45.958;12.492;2022-12-29T04:31:47;16.98;;;12.88;;
40373;SDS011;26079;45.958;12.492;2022-12-29T04:34:13;15.30;;;13.10;;
40373;SDS011;26079;45.958;12.492;2022-12-29T04:36:38;15.23;;;13.30;;
40373;SDS011;26079;45.958;12.492;2022-12-29T04:39:07;14.75;;;12.48;;
40373;SDS011;26079;45.958;12.492;2022-12-29T04:41:32;17.90;;;12.63;;
40373;SDS011;26079;45.958;12.492;2022-12-29T04:43:58;15.98;;;12.27;;
40373;SDS011;26079;45.958;12.492;2022-12-29T04:46:24;22.48;;;11.52;;
40373;SDS011;26079;45.958;12.492;2022-12-29T04:48:50;16.95;;;11.63;;
40373;SDS011;26079;45.958;12.492;2022-12-29T04:51:15;17.27;;;13.13;;
40373;SDS011;26079;45.958;12.492;2022-12-29T04:53:41;15.77;;;13.10;;
40373;SDS011;26079;45.958;12.492;2022-12-29T04:56:07;15.23;;;13.00;;
40373;SDS011;26079;45.958;12.492;2022-12-29T04:58:34;13.75;;;11.60;;
40373;SDS011;26079;45.958;12.492;2022-12-29T05:01:00;15.05;;;13.15;;
40373;SDS011;26079;45.958;12.492;2022-12-29T05:03:26;12.90;;;10.55;;
40373;SDS011;26079;45.958;12.492;2022-12-29T05:05:55;21.05;;;11.32;;
40373;SDS011;26079;45.958;12.492;2022-12-29T05:08:21;12.80;;;11.20;;
40373;SDS011;26079;45.958;12.492;2022-12-29T05:10:49;15.05;;;11.02;;
40373;SDS011;26079;45.958;12.492;2022-12-29T05:13:15;20.02;;;11.70;;
40373;SDS011;26079;45.958;12.492;2022-12-29T05:15:45;19.40;;;13.55;;
40373;SDS011;26079;45.958;12.492;2022-12-29T05:18:13;25.33;;;17.13;;
40373;SDS011;26079;45.958;12.492;2022-12-29T05:20:38;97.05;;;47.38;;
40373;SDS011;26079;45.958;12.492;2022-12-29T05:23:04;43.53;;;25.05;;
40373;SDS011;26079;45.958;12.492;2022-12-29T05:25:30;30.05;;;18.75;;
40373;SDS011;26079;45.958;12.492;2022-12-29T05:27:55;16.65;;;12.25;;
40373;SDS011;26079;45.958;12.492;2022-12-29T05:30:21;14.68;;;10.82;;
40373;SDS011;26079;45.958;12.492;2022-12-29T05:32:46;15.05;;;11.07;;
40373;SDS011;26079;45.958;12.492;2022-12-29T05:35:12;13.25;;;10.30;;
40373;SDS011;26079;45.958;12.492;2022-12-29T05:37:38;13.27;;;11.82;;
40373;SDS011;26079;45.958;12.492;2022-12-29T05:40:03;11.38;;;9.93;;
40373;SDS011;26079;45.958;12.492;2022-12-29T05:42:29;13.98;;;9.90;;
40373;SDS011;26079;45.958;12.492;2022-12-29T05:44:55;13.00;;;11.43;;
40373;SDS011;26079;45.958;12.492;2022-12-29T05:47:21;12.63;;;9.57;;
40373;SDS011;26079;45.958;12.492;2022-12-29T05:49:46;13.73;;;9.52;;
40373;SDS011;26079;45.958;12.492;2022-12-29T05:52:12;13.95;;;10.50;;
40373;SDS011;26079;45.958;12.492;2022-12-29T05:54:38;14.38;;;9.98;;
40373;SDS011;26079;45.958;12.492;2022-12-29T05:57:03;14.25;;;9.85;;
40373;SDS011;26079;45.958;12.492;2022-12-29T05:59:29;14.18;;;10.07;;
40373;SDS011;26079;45.958;12.492;2022-12-29T06:01:54;15.43;;;10.07;;
40373;SDS011;26079;45.958;12.492;2022-12-29T06:04:20;12.63;;;10.52;;
40373;SDS011;26079;45.958;12.492;2022-12-29T06:06:46;15.77;;;11.48;;
40373;SDS011;26079;45.958;12.492;2022-12-29T06:09:11;16.30;;;12.38;;
40373;SDS011;26079;45.958;12.492;2022-12-29T06:11:37;12.45;;;9.95;;
40373;SDS011;26079;45.958;12.492;2022-12-29T06:14:02;12.30;;;10.13;;
40373;SDS011;26079;45.958;12.492;2022-12-29T06:16:28;12.27;;;10.43;;
40373;SDS011;26079;45.958;12.492;2022-12-29T06:18:54;11.77;;;10.52;;
40373;SDS011;26079;45.958;12.492;2022-12-29T06:21:19;15.02;;;11.35;;
40373;SDS011;26079;45.958;12.492;2022-12-29T06:23:45;15.65;;;11.23;;
40373;SDS011;26079;45.958;12.492;2022-12-29T06:26:11;15.05;;;11.07;;
40373;SDS011;26079;45.958;12.492;2022-12-29T06:28:36;19.58;;;10.77;;
40373;SDS011;26079;45.958;12.492;2022-12-29T06:31:02;11.45;;;9.02;;
40373;SDS011;26079;45.958;12.492;2022-12-29T06:33:28;12.95;;;9.63;;
40373;SDS011;26079;45.958;12.492;2022-12-29T06:35:54;13.52;;;10.25;;
40373;SDS011;26079;45.958;12.492;2022-12-29T06:38:20;15.55;;;9.75;;
40373;SDS011;26079;45.958;12.492;2022-12-29T06:40:45;11.15;;;9.48;;
40373;SDS011;26079;45.958;12.492;2022-12-29T06:43:11;15.05;;;9.73;;
40373;SDS011;26079;45.958;12.492;2022-12-29T06:45:37;13.00;;;10.38;;
40373;SDS011;26079;45.958;12.492;2022-12-29T06:48:05;11.60;;;9.32;;
40373;SDS011;26079;45.958;12.492;2022-12-29T06:50:30;13.02;;;9.05;;
40373;SDS011;26079;45.958;12.492;2022-12-29T06:52:56;10.32;;;9.23;;
40373;SDS011;26079;45.958;12.492;2022-12-29T06:55:22;10.27;;;9.15;;
40373;SDS011;26079;45.958;12.492;2022-12-29T06:57:47;10.82;;;9.25;;
40373;SDS011;26079;45.958;12.492;2022-12-29T07:00:13;12.93;;;9.57;;
40373;SDS011;26079;45.958;12.492;2022-12-29T07:02:39;12.77;;;11.43;;
40373;SDS011;26079;45.958;12.492;2022-12-29T07:05:05;15.32;;;11.18;;
40373;SDS011;26079;45.958;12.492;2022-12-29T07:07:32;16.33;;;13.20;;
40373;SDS011;26079;45.958;12.492;2022-12-29T07:09:58;18.45;;;13.18;;
40373;SDS011;26079;45.958;12.492;2022-12-29T07:12:23;16.10;;;12.00;;
40373;SDS011;26079;45.958;12.492;2022-12-29T07:14:49;13.50;;;11.93;;
40373;SDS011;26079;45.958;12.492;2022-12-29T07:17:14;15.38;;;11.82;;
40373;SDS011;26079;45.958;12.492;2022-12-29T07:19:40;13.95;;;12.50;;
40373;SDS011;26079;45.958;12.492;2022-12-29T07:22:06;13.57;;;11.38;;
40373;SDS011;26079;45.958;12.492;2022-12-29T07:24:31;15.13;;;10.35;;
40373;SDS011;26079;45.958;12.492;2022-12-29T07:26:57;14.00;;;10.30;;
40373;SDS011;26079;45.958;12.492;2022-12-29T07:29:23;14.48;;;10.60;;
40373;SDS011;26079;45.958;12.492;2022-12-29T07:31:49;11.65;;;9.45;;
40373;SDS011;26079;45.958;12.492;2022-12-29T07:34:14;17.13;;;10.50;;
40373;SDS011;26079;45.958;12.492;2022-12-29T07:36:40;12.32;;;10.68;;
40373;SDS011;26079;45.958;12.492;2022-12-29T07:39:06;12.55;;;10.52;;
40373;SDS011;26079;45.958;12.492;2022-12-29T07:41:32;15.13;;;10.85;;
40373;SDS011;26079;45.958;12.492;2022-12-29T07:43:58;13.43;;;11.30;;
40373;SDS011;26079;45.958;12.492;2022-12-29T07:46:23;18.80;;;12.15;;
40373;SDS011;26079;45.958;12.492;2022-12-29T07:48:49;17.52;;;13.38;;
40373;SDS011;26079;45.958;12.492;2022-12-29T07:51:15;18.70;;;12.05;;
40373;SDS011;26079;45.958;12.492;2022-12-29T07:53:40;13.70;;;12.23;;
40373;SDS011;26079;45.958;12.492;2022-12-29T07:56:06;15.30;;;12.95;;
40373;SDS011;26079;45.958;12.492;2022-12-29T07:58:31;16.40;;;12.40;;
40373;SDS011;26079;45.958;12.492;2022-12-29T08:00:57;13.05;;;11.25;;
40373;SDS011;26079;45.958;12.492;2022-12-29T08:03:23;12.18;;;10.70;;
40373;SDS011;26079;45.958;12.492;2022-12-29T08:05:50;14.02;;;12.10;;
40373;SDS011;26079;45.958;12.492;2022-12-29T08:08:16;15.13;;;12.32;;
40373;SDS011;26079;45.958;12.492;2022-12-29T08:10:42;15.20;;;11.93;;
40373;SDS011;26079;45.958;12.492;2022-12-29T08:13:08;12.80;;;11.48;;
40373;SDS011;26079;45.958;12.492;2022-12-29T08:15:33;15.90;;;13.75;;
40373;SDS011;26079;45.958;12.492;2022-12-29T08:17:59;14.60;;;13.07;;
40373;SDS011;26079;45.958;12.492;2022-12-29T08:20:25;17.63;;;14.43;;
40373;SDS011;26079;45.958;12.492;2022-12-29T08:22:50;23.10;;;16.40;;
40373;SDS011;26079;45.958;12.492;2022-12-29T08:25:16;35.47;;;28.65;;
40373;SDS011;26079;45.958;12.492;2022-12-29T08:27:42;33.83;;;26.98;;
40373;SDS011;26079;45.958;12.492;2022-12-29T08:30:08;29.67;;;25.63;;
40373;SDS011;26079;45.958;12.492;2022-12-29T08:32:34;30.85;;;22.00;;
40373;SDS011;26079;45.958;12.492;2022-12-29T08:34:59;22.42;;;19.13;;
40373;SDS011;26079;45.958;12.492;2022-12-29T08:37:25;23.08;;;17.40;;
40373;SDS011;26079;45.958;12.492;2022-12-29T08:39:51;19.02;;;14.77;;
40373;SDS011;26079;45.958;12.492;2022-12-29T08:42:17;23.08;;;15.35;;
40373;SDS011;26079;45.958;12.492;2022-12-29T08:44:42;19.50;;;16.05;;
40373;SDS011;26079;45.958;12.492;2022-12-29T08:47:09;22.23;;;15.85;;
40373;SDS011;26079;45.958;12.492;2022-12-29T08:49:36;27.02;;;20.40;;
40373;SDS011;26079;45.958;12.492;2022-12-29T08:52:02;31.75;;;23.33;;
40373;SDS011;26079;45.958;12.492;2022-12-29T08:54:28;24.98;;;18.05;;
40373;SDS011;26079;45.958;12.492;2022-12-29T08:56:53;17.23;;;13.65;;
40373;SDS011;26079;45.958;12.492;2022-12-29T08:59:19;16.15;;;13.95;;
40373;SDS011;26079;45.958;12.492;2022-12-29T09:01:45;17.70;;;12.88;;
40373;SDS011;26079;45.958;12.492;2022-12-29T09:04:10;21.38;;;14.75;;
40373;SDS011;26079;45.958;12.492;2022-12-29T09:06:36;16.58;;;13.75;;
40373;SDS011;26079;45.958;12.492;2022-12-29T09:09:02;15.77;;;14.13;;
40373;SDS011;26079;45.958;12.492;2022-12-29T09:11:28;18.73;;;16.38;;
40373;SDS011;26079;45.958;12.492;2022-12-29T09:13:53;24.55;;;15.82;;
40373;SDS011;26079;45.958;12.492;2022-12-29T09:16:20;25.52;;;15.70;;
40373;SDS011;26079;45.958;12.492;2022-12-29T09:18:48;21.13;;;15.82;;
40373;SDS011;26079;45.958;12.492;2022-12-29T09:21:13;21.63;;;17.48;;
40373;SDS011;26079;45.958;12.492;2022-12-29T09:23:39;22.90;;;17.90;;
40373;SDS011;26079;45.958;12.492;2022-12-29T09:26:05;24.27;;;20.42;;
40373;SDS011;26079;45.958;12.492;2022-12-29T09:28:32;23.67;;;19.88;;
40373;SDS011;26079;45.958;12.492;2022-12-29T09:30:58;28.10;;;20.30;;
40373;SDS011;26079;45.958;12.492;2022-12-29T09:33:24;24.23;;;18.17;;
40373;SDS011;26079;45.958;12.492;2022-12-29T09:35:51;26.80;;;20.13;;
40373;SDS011;26079;45.958;12.492;2022-12-29T09:38:18;27.00;;;19.33;;
40373;SDS011;26079;45.958;12.492;2022-12-29T09:40:45;29.27;;;19.27;;
40373;SDS011;26079;45.958;12.492;2022-12-29T09:46:30;22.95;;;19.08;;
40373;SDS011;26079;45.958;12.492;2022-12-29T09:54:21;24.05;;;17.35;;
40373;SDS011;26079;45.958;12.492;2022-12-29T09:56:53;17.70;;;15.88;;
40373;SDS011;26079;45.958;12.492;2022-12-29T09:59:21;21.30;;;17.73;;
40373;SDS011;26079;45.958;12.492;2022-12-29T10:01:53;25.42;;;18.02;;
40373;SDS011;26079;45.958;12.492;2022-12-29T10:04:30;24.33;;;18.83;;
40373;SDS011;26079;45.958;12.492;2022-12-29T10:09:56;25.30;;;20.25;;
40373;SDS011;26079;45.958;12.492;2022-12-29T10:12:32;30.33;;;20.15;;
40373;SDS011;26079;45.958;12.492;2022-12-29T10:20:28;22.02;;;14.52;;
40373;SDS011;26079;45.958;12.492;2022-12-29T10:23:35;20.80;;;16.00;;
40373;SDS011;26079;45.958;12.492;2022-12-29T10:26:09;28.67;;;16.55;;
40373;SDS011;26079;45.958;12.492;2022-12-29T10:28:57;23.38;;;17.60;;
40373;SDS011;26079;45.958;12.492;2022-12-29T10:31:40;28.67;;;18.33;;
40373;SDS011;26079;45.958;12.492;2022-12-29T10:34:30;24.85;;;19.48;;
40373;SDS011;26079;45.958;12.492;2022-12-29T10:37:09;22.55;;;17.95;;
40373;SDS011;26079;45.958;12.492;2022-12-29T10:39:53;26.83;;;17.92;;
40373;SDS011;26079;45.958;12.492;2022-12-29T10:42:27;24.95;;;19.52;;
40373;SDS011;26079;45.958;12.492;2022-12-29T10:44:58;24.83;;;18.98;;
40373;SDS011;26079;45.958;12.492;2022-12-29T10:47:25;26.15;;;19.92;;
40373;SDS011;26079;45.958;12.492;2022-12-29T10:49:54;24.45;;;18.15;;
40373;SDS011;26079;45.958;12.492;2022-12-29T10:52:20;26.25;;;18.45;;
40373;SDS011;26079;45.958;12.492;2022-12-29T10:55:02;23.48;;;18.50;;
40373;SDS011;26079;45.958;12.492;2022-12-29T10:57:33;24.60;;;20.20;;
40373;SDS011;26079;45.958;12.492;2022-12-29T11:00:10;26.20;;;19.02;;
40373;SDS011;26079;45.958;12.492;2022-12-29T11:08:27;25.33;;;18.63;;
40373;SDS011;26079;45.958;12.492;2022-12-29T11:11:02;26.55;;;18.45;;
40373;SDS011;26079;45.958;12.492;2022-12-29T11:13:31;27.70;;;20.00;;
40373;SDS011;26079;45.958;12.492;2022-12-29T11:15:58;32.28;;;21.50;;
40373;SDS011;26079;45.958;12.492;2022-12-29T11:20:57;26.92;;;21.60;;
40373;SDS011;26079;45.958;12.492;2022-12-29T11:28:32;26.42;;;20.48;;
40373;SDS011;26079;45.958;12.492;2022-12-29T11:31:00;25.00;;;20.67;;
40373;SDS011;26079;45.958;12.492;2022-12-29T11:33:30;24.38;;;18.35;;
40373;SDS011;26079;45.958;12.492;2022-12-29T11:36:08;23.48;;;17.65;;
40373;SDS011;26079;45.958;12.492;2022-12-29T11:41:19;29.60;;;20.08;;
40373;SDS011;26079;45.958;12.492;2022-12-29T11:43:49;28.85;;;20.55;;
40373;SDS011;26079;45.958;12.492;2022-12-29T11:46:19;32.85;;;23.25;;
40373;SDS011;26079;45.958;12.492;2022-12-29T11:48:49;28.90;;;20.48;;
40373;SDS011;26079;45.958;12.492;2022-12-29T11:51:21;27.55;;;20.70;;
40373;SDS011;26079;45.958;12.492;2022-12-29T11:53:53;31.58;;;21.33;;
40373;SDS011;26079;45.958;12.492;2022-12-29T11:56:40;31.00;;;21.90;;
40373;SDS011;26079;45.958;12.492;2022-12-29T12:01:52;30.30;;;22.33;;
40373;SDS011;26079;45.958;12.492;2022-12-29T12:04:19;30.45;;;21.92;;
40373;SDS011;26079;45.958;12.492;2022-12-29T12:06:52;27.20;;;21.35;;
40373;SDS011;26079;45.958;12.492;2022-12-29T12:09:32;40.88;;;22.10;;
40373;SDS011;26079;45.958;12.492;2022-12-29T12:12:03;28.60;;;21.65;;
40373;SDS011;26079;45.958;12.492;2022-12-29T12:14:34;36.63;;;23.60;;
40373;SDS011;26079;45.958;12.492;2022-12-29T12:17:14;29.08;;;22.80;;
40373;SDS011;26079;45.958;12.492;2022-12-29T12:19:46;35.08;;;22.55;;
40373;SDS011;26079;45.958;12.492;2022-12-29T12:27:38;32.85;;;22.40;;
40373;SDS011;26079;45.958;12.492;2022-12-29T12:30:22;32.05;;;22.27;;
40373;SDS011;26079;45.958;12.492;2022-12-29T12:43:36;27.13;;;21.48;;
40373;SDS011;26079;45.958;12.492;2022-12-29T12:58:07;31.48;;;20.73;;
40373;SDS011;26079;45.958;12.492;2022-12-29T13:00:59;30.00;;;22.25;;
40373;SDS011;26079;45.958;12.492;2022-12-29T13:03:52;27.00;;;20.48;;
40373;SDS011;26079;45.958;12.492;2022-12-29T13:14:59;34.58;;;22.33;;
40373;SDS011;26079;45.958;12.492;2022-12-29T13:17:41;29.23;;;22.45;;
40373;SDS011;26079;45.958;12.492;2022-12-29T13:25:34;29.35;;;22.10;;
40373;SDS011;26079;45.958;12.492;2022-12-29T13:31:20;29.58;;;23.02;;
40373;SDS011;26079;45.958;12.492;2022-12-29T13:36:34;29.85;;;22.73;;
40373;SDS011;26079;45.958;12.492;2022-12-29T13:39:40;28.50;;;20.88;;
40373;SDS011;26079;45.958;12.492;2022-12-29T13:42:10;27.30;;;20.73;;
40373;SDS011;26079;45.958;12.492;2022-12-29T13:47:27;28.27;;;22.15;;
40373;SDS011;26079;45.958;12.492;2022-12-29T13:50:21;36.55;;;22.23;;
40373;SDS011;26079;45.958;12.492;2022-12-29T13:58:41;36.25;;;20.85;;
40373;SDS011;26079;45.958;12.492;2022-12-29T14:01:22;29.05;;;23.45;;
40373;SDS011;26079;45.958;12.492;2022-12-29T14:03:58;34.85;;;19.63;;
40373;SDS011;26079;45.958;12.492;2022-12-29T14:06:34;26.65;;;20.13;;
40373;SDS011;26079;45.958;12.492;2022-12-29T14:09:06;34.95;;;21.30;;
40373;SDS011;26079;45.958;12.492;2022-12-29T14:11:52;26.75;;;19.33;;
40373;SDS011;26079;45.958;12.492;2022-12-29T14:16:48;24.25;;;19.75;;
40373;SDS011;26079;45.958;12.492;2022-12-29T14:19:15;23.33;;;17.20;;
40373;SDS011;26079;45.958;12.492;2022-12-29T14:21:49;23.83;;;18.55;;
40373;SDS011;26079;45.958;12.492;2022-12-29T14:24:27;24.92;;;18.25;;
40373;SDS011;26079;45.958;12.492;2022-12-29T14:26:56;24.90;;;19.67;;
40373;SDS011;26079;45.958;12.492;2022-12-29T14:31:53;27.80;;;17.92;;
40373;SDS011;26079;45.958;12.492;2022-12-29T14:44:55;47.60;;;28.60;;
40373;SDS011;26079;45.958;12.492;2022-12-29T14:47:42;42.38;;;28.17;;
40373;SDS011;26079;45.958;12.492;2022-12-29T14:50:22;38.80;;;26.67;;
40373;SDS011;26079;45.958;12.492;2022-12-29T14:52:58;39.60;;;26.30;;
40373;SDS011;26079;45.958;12.492;2022-12-29T14:58:01;40.75;;;28.15;;
40373;SDS011;26079;45.958;12.492;2022-12-29T15:00:30;57.58;;;38.95;;
40373;SDS011;26079;45.958;12.492;2022-12-29T15:03:06;64.72;;;43.17;;
40373;SDS011;26079;45.958;12.492;2022-12-29T15:06:24;42.08;;;29.60;;
40373;SDS011;26079;45.958;12.492;2022-12-29T15:08:33;38.17;;;28.92;;
40373;SDS011;26079;45.958;12.492;2022-12-29T15:11:22;39.03;;;27.75;;
40373;SDS011;26079;45.958;12.492;2022-12-29T15:13:54;36.22;;;24.70;;
40373;SDS011;26079;45.958;12.492;2022-12-29T15:19:20;32.83;;;26.50;;
40373;SDS011;26079;45.958;12.492;2022-12-29T15:21:50;33.08;;;24.77;;
40373;SDS011;26079;45.958;12.492;2022-12-29T15:24:17;34.30;;;24.48;;
40373;SDS011;26079;45.958;12.492;2022-12-29T15:26:44;34.28;;;25.75;;
40373;SDS011;26079;45.958;12.492;2022-12-29T15:32:00;42.30;;;27.63;;
40373;SDS011;26079;45.958;12.492;2022-12-29T15:34:36;35.75;;;27.75;;
40373;SDS011;26079;45.958;12.492;2022-12-29T15:37:05;36.90;;;26.83;;
40373;SDS011;26079;45.958;12.492;2022-12-29T15:39:32;37.88;;;26.13;;
40373;SDS011;26079;45.958;12.492;2022-12-29T15:45:05;41.30;;;25.08;;
40373;SDS011;26079;45.958;12.492;2022-12-29T15:47:34;33.70;;;26.33;;
40373;SDS011;26079;45.958;12.492;2022-12-29T15:50:04;34.15;;;25.33;;
40373;SDS011;26079;45.958;12.492;2022-12-29T15:52:33;37.05;;;24.30;;
40373;SDS011;26079;45.958;12.492;2022-12-29T15:54:59;31.35;;;23.80;;
40373;SDS011;26079;45.958;12.492;2022-12-29T16:00:01;37.88;;;27.83;;
40373;SDS011;26079;45.958;12.492;2022-12-29T16:02:27;44.47;;;30.48;;
40373;SDS011;26079;45.958;12.492;2022-12-29T16:04:53;40.60;;;34.13;;
40373;SDS011;26079;45.958;12.492;2022-12-29T16:07:24;46.28;;;32.75;;
40373;SDS011;26079;45.958;12.492;2022-12-29T16:09:58;44.70;;;33.30;;
40373;SDS011;26079;45.958;12.492;2022-12-29T16:12:26;45.00;;;33.13;;
40373;SDS011;26079;45.958;12.492;2022-12-29T16:15:01;41.42;;;33.03;;
40373;SDS011;26079;45.958;12.492;2022-12-29T16:17:42;50.10;;;34.78;;
40373;SDS011;26079;45.958;12.492;2022-12-29T16:20:16;60.75;;;38.67;;
40373;SDS011;26079;45.958;12.492;2022-12-29T16:22:57;50.15;;;36.13;;
40373;SDS011;26079;45.958;12.492;2022-12-29T16:25:25;50.17;;;35.90;;
40373;SDS011;26079;45.958;12.492;2022-12-29T16:27:56;47.42;;;35.60;;
40373;SDS011;26079;45.958;12.492;2022-12-29T16:30:27;48.13;;;34.90;;
40373;SDS011;26079;45.958;12.492;2022-12-29T16:32:55;50.25;;;31.38;;
40373;SDS011;26079;45.958;12.492;2022-12-29T16:35:24;45.00;;;30.25;;
40373;SDS011;26079;45.958;12.492;2022-12-29T16:38:13;45.25;;;30.85;;
40373;SDS011;26079;45.958;12.492;2022-12-29T16:40:56;45.47;;;32.13;;
40373;SDS011;26079;45.958;12.492;2022-12-29T16:43:33;44.78;;;32.47;;
40373;SDS011;26079;45.958;12.492;2022-12-29T16:46:21;45.65;;;32.25;;
40373;SDS011;26079;45.958;12.492;2022-12-29T16:48:53;46.97;;;33.20;;
40373;SDS011;26079;45.958;12.492;2022-12-29T16:53:53;67.35;;;42.58;;
40373;SDS011;26079;45.958;12.492;2022-12-29T16:56:21;72.95;;;42.17;;
40373;SDS011;26079;45.958;12.492;2022-12-29T16:58:51;86.15;;;51.10;;
40373;SDS011;26079;45.958;12.492;2022-12-29T17:01:37;63.60;;;39.25;;
40373;SDS011;26079;45.958;12.492;2022-12-29T17:04:11;92.10;;;52.47;;
40373;SDS011;26079;45.958;12.492;2022-12-29T17:06:38;88.38;;;49.30;;
40373;SDS011;26079;45.958;12.492;2022-12-29T17:09:37;80.90;;;47.78;;
40373;SDS011;26079;45.958;12.492;2022-12-29T17:11:57;79.00;;;46.42;;